sensor_id;sensor_type;location;lat;lon;timestamp;P1;durP1;ratioP1;P2;durP2;ratioP2
65238;SDS011;51827;51.186;6.926;2022-09-12T00:00:49;15.70;;;9.27;;
65238;SDS011;51827;51.186;6.926;2022-09-12T00:01:50;14.30;;;9.00;;
65238;SDS011;51827;51.186;6.926;2022-09-12T00:02:53;14.02;;;8.60;;
65238;SDS011;51827;51.186;6.926;2022-09-12T00:03:58;13.68;;;8.98;;
65238;SDS011;51827;51.186;6.926;2022-09-12T00:04:59;15.88;;;8.73;;
65238;SDS011;51827;51.186;6.926;2022-09-12T00:06:00;13.10;;;8.37;;
65238;SDS011;51827;51.186;6.926;2022-09-12T00:07:00;15.17;;;9.27;;
65238;SDS011;51827;51.186;6.926;2022-09-12T00:08:00;15.90;;;9.03;;
65238;SDS011;51827;51.186;6.926;2022-09-12T00:09:05;15.73;;;8.70;;
65238;SDS011;51827;51.186;6.926;2022-09-12T00:10:10;11.88;;;7.93;;
65238;SDS011;51827;51.186;6.926;2022-09-12T00:11:12;14.73;;;8.95;;
65238;SDS011;51827;51.186;6.926;2022-09-12T00:12:13;13.35;;;9.10;;
65238;SDS011;51827;51.186;6.926;2022-09-12T00:13:13;11.90;;;8.50;;
65238;SDS011;51827;51.186;6.926;2022-09-12T00:14:14;16.13;;;8.80;;
65238;SDS011;51827;51.186;6.926;2022-09-12T00:15:16;13.02;;;9.23;;
65238;SDS011;51827;51.186;6.926;2022-09-12T00:16:21;13.02;;;9.32;;
65238;SDS011;51827;51.186;6.926;2022-09-12T00:17:23;12.75;;;9.05;;
65238;SDS011;51827;51.186;6.926;2022-09-12T00:18:23;14.77;;;9.83;;
65238;SDS011;51827;51.186;6.926;2022-09-12T00:19:24;16.40;;;9.03;;
65238;SDS011;51827;51.186;6.926;2022-09-12T00:20:25;12.90;;;8.70;;
65238;SDS011;51827;51.186;6.926;2022-09-12T00:21:25;13.70;;;9.18;;
65238;SDS011;51827;51.186;6.926;2022-09-12T00:22:26;13.73;;;8.73;;
65238;SDS011;51827;51.186;6.926;2022-09-12T00:23:26;17.57;;;9.67;;
65238;SDS011;51827;51.186;6.926;2022-09-12T00:24:27;15.50;;;8.90;;
65238;SDS011;51827;51.186;6.926;2022-09-12T00:25:27;15.73;;;9.50;;
65238;SDS011;51827;51.186;6.926;2022-09-12T00:26:27;13.60;;;9.07;;
65238;SDS011;51827;51.186;6.926;2022-09-12T00:27:28;16.77;;;9.65;;
65238;SDS011;51827;51.186;6.926;2022-09-12T00:28:28;11.17;;;8.70;;
65238;SDS011;51827;51.186;6.926;2022-09-12T00:29:29;12.57;;;8.70;;
65238;SDS011;51827;51.186;6.926;2022-09-12T00:30:29;14.20;;;9.10;;
65238;SDS011;51827;51.186;6.926;2022-09-12T00:31:29;13.70;;;8.97;;
65238;SDS011;51827;51.186;6.926;2022-09-12T00:32:30;16.52;;;9.10;;
65238;SDS011;51827;51.186;6.926;2022-09-12T00:33:30;11.90;;;8.57;;
65238;SDS011;51827;51.186;6.926;2022-09-12T00:34:30;13.68;;;8.40;;
65238;SDS011;51827;51.186;6.926;2022-09-12T00:35:31;16.50;;;8.57;;
65238;SDS011;51827;51.186;6.926;2022-09-12T00:36:33;11.65;;;8.40;;
65238;SDS011;51827;51.186;6.926;2022-09-12T00:37:33;12.77;;;8.67;;
65238;SDS011;51827;51.186;6.926;2022-09-12T00:38:34;12.73;;;8.70;;
65238;SDS011;51827;51.186;6.926;2022-09-12T00:39:34;11.33;;;8.33;;
65238;SDS011;51827;51.186;6.926;2022-09-12T00:40:34;14.27;;;9.00;;
65238;SDS011;51827;51.186;6.926;2022-09-12T00:41:36;13.15;;;9.07;;
65238;SDS011;51827;51.186;6.926;2022-09-12T00:42:38;12.35;;;8.70;;
65238;SDS011;51827;51.186;6.926;2022-09-12T00:43:39;13.67;;;8.47;;
65238;SDS011;51827;51.186;6.926;2022-09-12T00:44:42;14.13;;;9.00;;
65238;SDS011;51827;51.186;6.926;2022-09-12T00:45:45;13.07;;;9.18;;
65238;SDS011;51827;51.186;6.926;2022-09-12T00:47:45;14.20;;;8.77;;
65238;SDS011;51827;51.186;6.926;2022-09-12T00:49:28;13.00;;;8.57;;
65238;SDS011;51827;51.186;6.926;2022-09-12T00:50:12;12.95;;;8.35;;
65238;SDS011;51827;51.186;6.926;2022-09-12T00:51:15;12.63;;;8.52;;
65238;SDS011;51827;51.186;6.926;2022-09-12T00:53:20;17.08;;;8.70;;
65238;SDS011;51827;51.186;6.926;2022-09-12T00:54:21;17.10;;;9.13;;
65238;SDS011;51827;51.186;6.926;2022-09-12T00:55:31;13.80;;;8.98;;
65238;SDS011;51827;51.186;6.926;2022-09-12T00:56:42;12.48;;;8.32;;
65238;SDS011;51827;51.186;6.926;2022-09-12T00:57:56;13.27;;;8.73;;
65238;SDS011;51827;51.186;6.926;2022-09-12T00:59:01;13.70;;;8.35;;
65238;SDS011;51827;51.186;6.926;2022-09-12T01:00:15;13.32;;;7.88;;
65238;SDS011;51827;51.186;6.926;2022-09-12T01:01:17;13.60;;;8.27;;
65238;SDS011;51827;51.186;6.926;2022-09-12T01:03:19;13.33;;;8.20;;
65238;SDS011;51827;51.186;6.926;2022-09-12T01:04:22;12.88;;;8.45;;
65238;SDS011;51827;51.186;6.926;2022-09-12T01:05:24;12.05;;;8.50;;
65238;SDS011;51827;51.186;6.926;2022-09-12T01:06:27;15.15;;;8.55;;
65238;SDS011;51827;51.186;6.926;2022-09-12T01:07:36;11.55;;;8.18;;
65238;SDS011;51827;51.186;6.926;2022-09-12T01:08:38;12.77;;;7.97;;
65238;SDS011;51827;51.186;6.926;2022-09-12T01:09:43;16.73;;;8.07;;
65238;SDS011;51827;51.186;6.926;2022-09-12T01:10:46;12.77;;;8.30;;
65238;SDS011;51827;51.186;6.926;2022-09-12T01:11:48;15.10;;;8.20;;
65238;SDS011;51827;51.186;6.926;2022-09-12T01:12:50;13.23;;;8.20;;
65238;SDS011;51827;51.186;6.926;2022-09-12T01:13:50;13.75;;;8.48;;
65238;SDS011;51827;51.186;6.926;2022-09-12T01:14:50;13.93;;;7.80;;
65238;SDS011;51827;51.186;6.926;2022-09-12T01:15:51;14.33;;;8.57;;
65238;SDS011;51827;51.186;6.926;2022-09-12T01:16:51;12.07;;;8.30;;
65238;SDS011;51827;51.186;6.926;2022-09-12T01:19:03;10.70;;;7.47;;
65238;SDS011;51827;51.186;6.926;2022-09-12T01:22:46;12.20;;;8.13;;
65238;SDS011;51827;51.186;6.926;2022-09-12T01:25:10;11.57;;;7.72;;
65238;SDS011;51827;51.186;6.926;2022-09-12T01:32:02;11.80;;;7.53;;
65238;SDS011;51827;51.186;6.926;2022-09-12T01:36:00;12.40;;;8.02;;
65238;SDS011;51827;51.186;6.926;2022-09-12T01:37:36;11.80;;;8.10;;
65238;SDS011;51827;51.186;6.926;2022-09-12T01:39:08;11.23;;;7.43;;
65238;SDS011;51827;51.186;6.926;2022-09-12T01:40:21;11.68;;;8.02;;
65238;SDS011;51827;51.186;6.926;2022-09-12T01:41:33;14.13;;;7.53;;
65238;SDS011;51827;51.186;6.926;2022-09-12T01:47:07;14.82;;;7.82;;
65238;SDS011;51827;51.186;6.926;2022-09-12T01:49:22;13.13;;;7.85;;
65238;SDS011;51827;51.186;6.926;2022-09-12T01:50:55;16.20;;;7.90;;
65238;SDS011;51827;51.186;6.926;2022-09-12T01:52:09;12.32;;;8.07;;
65238;SDS011;51827;51.186;6.926;2022-09-12T01:53:32;15.65;;;7.18;;
65238;SDS011;51827;51.186;6.926;2022-09-12T01:54:38;11.18;;;7.45;;
65238;SDS011;51827;51.186;6.926;2022-09-12T01:56:06;10.85;;;7.32;;
65238;SDS011;51827;51.186;6.926;2022-09-12T01:57:11;11.65;;;7.35;;
65238;SDS011;51827;51.186;6.926;2022-09-12T01:59:20;12.98;;;7.97;;
65238;SDS011;51827;51.186;6.926;2022-09-12T02:00:43;12.73;;;7.60;;
65238;SDS011;51827;51.186;6.926;2022-09-12T02:01:50;14.55;;;7.47;;
65238;SDS011;51827;51.186;6.926;2022-09-12T02:02:59;9.90;;;7.30;;
65238;SDS011;51827;51.186;6.926;2022-09-12T02:04:05;15.25;;;7.78;;
65238;SDS011;51827;51.186;6.926;2022-09-12T02:05:11;11.55;;;7.57;;
65238;SDS011;51827;51.186;6.926;2022-09-12T02:06:30;10.70;;;7.22;;
65238;SDS011;51827;51.186;6.926;2022-09-12T02:07:53;10.90;;;7.50;;
65238;SDS011;51827;51.186;6.926;2022-09-12T02:09:06;13.10;;;7.53;;
65238;SDS011;51827;51.186;6.926;2022-09-12T02:10:24;13.15;;;7.70;;
65238;SDS011;51827;51.186;6.926;2022-09-12T02:11:28;17.35;;;7.75;;
65238;SDS011;51827;51.186;6.926;2022-09-12T02:12:36;9.57;;;6.72;;
65238;SDS011;51827;51.186;6.926;2022-09-12T02:13:46;11.18;;;7.88;;
65238;SDS011;51827;51.186;6.926;2022-09-12T02:14:50;12.18;;;7.40;;
65238;SDS011;51827;51.186;6.926;2022-09-12T02:15:55;10.98;;;7.50;;
65238;SDS011;51827;51.186;6.926;2022-09-12T02:18:10;9.93;;;7.45;;
65238;SDS011;51827;51.186;6.926;2022-09-12T02:19:18;10.85;;;7.40;;
65238;SDS011;51827;51.186;6.926;2022-09-12T02:20:28;11.30;;;7.13;;
65238;SDS011;51827;51.186;6.926;2022-09-12T02:21:30;10.98;;;7.05;;
65238;SDS011;51827;51.186;6.926;2022-09-12T02:22:31;10.43;;;7.40;;
65238;SDS011;51827;51.186;6.926;2022-09-12T02:23:37;12.43;;;7.35;;
65238;SDS011;51827;51.186;6.926;2022-09-12T02:24:42;12.98;;;7.10;;
65238;SDS011;51827;51.186;6.926;2022-09-12T02:25:47;10.85;;;7.20;;
65238;SDS011;51827;51.186;6.926;2022-09-12T02:26:57;10.60;;;6.47;;
65238;SDS011;51827;51.186;6.926;2022-09-12T02:28:02;10.02;;;6.88;;
65238;SDS011;51827;51.186;6.926;2022-09-12T02:29:02;9.80;;;7.05;;
65238;SDS011;51827;51.186;6.926;2022-09-12T02:30:04;14.00;;;7.07;;
65238;SDS011;51827;51.186;6.926;2022-09-12T02:33:06;11.90;;;6.75;;
65238;SDS011;51827;51.186;6.926;2022-09-12T02:38:12;10.40;;;6.90;;
65238;SDS011;51827;51.186;6.926;2022-09-12T02:39:19;13.30;;;6.85;;
65238;SDS011;51827;51.186;6.926;2022-09-12T02:40:19;10.43;;;7.18;;
65238;SDS011;51827;51.186;6.926;2022-09-12T02:41:20;8.30;;;6.37;;
65238;SDS011;51827;51.186;6.926;2022-09-12T02:42:20;10.68;;;6.80;;
65238;SDS011;51827;51.186;6.926;2022-09-12T02:43:21;8.73;;;6.20;;
65238;SDS011;51827;51.186;6.926;2022-09-12T02:44:27;11.88;;;6.80;;
65238;SDS011;51827;51.186;6.926;2022-09-12T02:45:29;10.32;;;6.57;;
65238;SDS011;51827;51.186;6.926;2022-09-12T02:46:32;10.35;;;6.88;;
65238;SDS011;51827;51.186;6.926;2022-09-12T02:47:42;9.32;;;7.10;;
65238;SDS011;51827;51.186;6.926;2022-09-12T02:48:45;11.82;;;6.75;;
65238;SDS011;51827;51.186;6.926;2022-09-12T02:49:46;7.93;;;6.50;;
65238;SDS011;51827;51.186;6.926;2022-09-12T02:50:46;10.23;;;6.37;;
65238;SDS011;51827;51.186;6.926;2022-09-12T02:51:47;11.40;;;6.93;;
65238;SDS011;51827;51.186;6.926;2022-09-12T02:53:49;9.35;;;6.80;;
65238;SDS011;51827;51.186;6.926;2022-09-12T02:54:49;8.75;;;6.20;;
65238;SDS011;51827;51.186;6.926;2022-09-12T02:55:50;9.43;;;6.43;;
65238;SDS011;51827;51.186;6.926;2022-09-12T02:56:51;10.45;;;7.38;;
65238;SDS011;51827;51.186;6.926;2022-09-12T02:57:52;10.65;;;6.55;;
65238;SDS011;51827;51.186;6.926;2022-09-12T02:58:52;11.87;;;6.83;;
65238;SDS011;51827;51.186;6.926;2022-09-12T02:59:56;9.57;;;6.93;;
65238;SDS011;51827;51.186;6.926;2022-09-12T03:01:03;12.35;;;6.68;;
65238;SDS011;51827;51.186;6.926;2022-09-12T03:11:36;10.40;;;6.25;;
65238;SDS011;51827;51.186;6.926;2022-09-12T03:20:42;11.17;;;6.37;;
65238;SDS011;51827;51.186;6.926;2022-09-12T03:23:01;9.93;;;6.60;;
65238;SDS011;51827;51.186;6.926;2022-09-12T03:24:12;8.02;;;5.97;;
65238;SDS011;51827;51.186;6.926;2022-09-12T03:25:18;9.52;;;5.82;;
65238;SDS011;51827;51.186;6.926;2022-09-12T03:28:02;9.77;;;6.05;;
65238;SDS011;51827;51.186;6.926;2022-09-12T03:29:04;10.57;;;6.00;;
65238;SDS011;51827;51.186;6.926;2022-09-12T03:30:06;10.27;;;6.10;;
65238;SDS011;51827;51.186;6.926;2022-09-12T03:31:11;8.52;;;5.97;;
65238;SDS011;51827;51.186;6.926;2022-09-12T03:32:13;8.10;;;5.97;;
65238;SDS011;51827;51.186;6.926;2022-09-12T03:33:15;12.55;;;5.90;;
65238;SDS011;51827;51.186;6.926;2022-09-12T03:34:17;12.65;;;5.57;;
65238;SDS011;51827;51.186;6.926;2022-09-12T03:35:19;10.90;;;5.97;;
65238;SDS011;51827;51.186;6.926;2022-09-12T03:36:23;6.80;;;5.20;;
65238;SDS011;51827;51.186;6.926;2022-09-12T03:37:24;9.30;;;5.40;;
65238;SDS011;51827;51.186;6.926;2022-09-12T03:38:24;10.37;;;5.90;;
65238;SDS011;51827;51.186;6.926;2022-09-12T03:39:26;9.97;;;5.97;;
65238;SDS011;51827;51.186;6.926;2022-09-12T03:40:26;7.38;;;5.57;;
65238;SDS011;51827;51.186;6.926;2022-09-12T03:41:26;8.30;;;5.40;;
65238;SDS011;51827;51.186;6.926;2022-09-12T03:42:28;8.35;;;5.65;;
65238;SDS011;51827;51.186;6.926;2022-09-12T03:43:28;9.03;;;5.53;;
65238;SDS011;51827;51.186;6.926;2022-09-12T03:44:28;7.97;;;5.13;;
65238;SDS011;51827;51.186;6.926;2022-09-12T03:45:28;12.47;;;5.80;;
65238;SDS011;51827;51.186;6.926;2022-09-12T03:46:29;9.07;;;5.55;;
65238;SDS011;51827;51.186;6.926;2022-09-12T03:47:29;10.67;;;5.67;;
65238;SDS011;51827;51.186;6.926;2022-09-12T03:48:30;9.98;;;5.63;;
65238;SDS011;51827;51.186;6.926;2022-09-12T03:49:30;8.53;;;5.47;;
65238;SDS011;51827;51.186;6.926;2022-09-12T03:50:30;13.40;;;5.90;;
65238;SDS011;51827;51.186;6.926;2022-09-12T03:51:31;9.77;;;5.15;;
65238;SDS011;51827;51.186;6.926;2022-09-12T03:52:31;8.50;;;5.77;;
65238;SDS011;51827;51.186;6.926;2022-09-12T03:53:31;7.43;;;5.22;;
65238;SDS011;51827;51.186;6.926;2022-09-12T03:54:32;8.77;;;5.80;;
65238;SDS011;51827;51.186;6.926;2022-09-12T03:55:32;7.90;;;5.03;;
65238;SDS011;51827;51.186;6.926;2022-09-12T03:56:32;9.47;;;5.20;;
65238;SDS011;51827;51.186;6.926;2022-09-12T03:57:33;8.55;;;5.07;;
65238;SDS011;51827;51.186;6.926;2022-09-12T03:58:33;7.73;;;5.40;;
65238;SDS011;51827;51.186;6.926;2022-09-12T03:59:34;7.97;;;5.85;;
65238;SDS011;51827;51.186;6.926;2022-09-12T04:00:34;6.23;;;4.60;;
65238;SDS011;51827;51.186;6.926;2022-09-12T04:01:37;7.93;;;5.53;;
65238;SDS011;51827;51.186;6.926;2022-09-12T04:02:38;7.63;;;5.40;;
65238;SDS011;51827;51.186;6.926;2022-09-12T04:03:39;8.57;;;5.10;;
65238;SDS011;51827;51.186;6.926;2022-09-12T04:04:39;7.85;;;5.68;;
65238;SDS011;51827;51.186;6.926;2022-09-12T04:05:40;7.80;;;5.72;;
65238;SDS011;51827;51.186;6.926;2022-09-12T04:06:43;9.67;;;5.03;;
65238;SDS011;51827;51.186;6.926;2022-09-12T04:07:52;7.07;;;5.15;;
65238;SDS011;51827;51.186;6.926;2022-09-12T04:08:52;7.15;;;5.30;;
65238;SDS011;51827;51.186;6.926;2022-09-12T04:09:54;9.10;;;5.50;;
65238;SDS011;51827;51.186;6.926;2022-09-12T04:11:00;12.57;;;5.73;;
65238;SDS011;51827;51.186;6.926;2022-09-12T04:12:01;23.08;;;7.32;;
65238;SDS011;51827;51.186;6.926;2022-09-12T04:13:02;28.25;;;7.82;;
65238;SDS011;51827;51.186;6.926;2022-09-12T04:14:02;27.33;;;7.77;;
65238;SDS011;51827;51.186;6.926;2022-09-12T04:15:05;25.50;;;8.32;;
65238;SDS011;51827;51.186;6.926;2022-09-12T04:16:06;37.45;;;9.65;;
65238;SDS011;51827;51.186;6.926;2022-09-12T04:18:11;41.40;;;10.10;;
65238;SDS011;51827;51.186;6.926;2022-09-12T04:19:11;40.13;;;9.63;;
65238;SDS011;51827;51.186;6.926;2022-09-12T04:20:11;33.37;;;9.07;;
65238;SDS011;51827;51.186;6.926;2022-09-12T04:21:13;31.50;;;9.43;;
65238;SDS011;51827;51.186;6.926;2022-09-12T04:22:15;34.55;;;8.90;;
65238;SDS011;51827;51.186;6.926;2022-09-12T04:23:15;30.30;;;8.33;;
65238;SDS011;51827;51.186;6.926;2022-09-12T04:24:16;22.37;;;7.40;;
65238;SDS011;51827;51.186;6.926;2022-09-12T04:25:16;19.70;;;6.30;;
65238;SDS011;51827;51.186;6.926;2022-09-12T04:26:16;16.93;;;6.63;;
65238;SDS011;51827;51.186;6.926;2022-09-12T04:28:18;18.57;;;6.20;;
65238;SDS011;51827;51.186;6.926;2022-09-12T04:29:18;16.73;;;6.03;;
65238;SDS011;51827;51.186;6.926;2022-09-12T04:30:18;18.10;;;6.67;;
65238;SDS011;51827;51.186;6.926;2022-09-12T04:31:18;12.47;;;5.80;;
65238;SDS011;51827;51.186;6.926;2022-09-12T04:32:22;18.63;;;6.32;;
65238;SDS011;51827;51.186;6.926;2022-09-12T04:33:22;14.43;;;5.70;;
65238;SDS011;51827;51.186;6.926;2022-09-12T04:34:22;14.90;;;5.67;;
65238;SDS011;51827;51.186;6.926;2022-09-12T04:35:23;9.17;;;5.27;;
65238;SDS011;51827;51.186;6.926;2022-09-12T04:36:23;10.03;;;4.97;;
65238;SDS011;51827;51.186;6.926;2022-09-12T04:37:25;11.50;;;5.13;;
65238;SDS011;51827;51.186;6.926;2022-09-12T04:38:25;11.60;;;5.60;;
65238;SDS011;51827;51.186;6.926;2022-09-12T04:39:28;9.87;;;5.07;;
65238;SDS011;51827;51.186;6.926;2022-09-12T04:40:28;13.32;;;5.43;;
65238;SDS011;51827;51.186;6.926;2022-09-12T04:41:30;11.77;;;5.55;;
65238;SDS011;51827;51.186;6.926;2022-09-12T04:42:32;10.18;;;5.15;;
65238;SDS011;51827;51.186;6.926;2022-09-12T04:43:32;9.73;;;5.17;;
65238;SDS011;51827;51.186;6.926;2022-09-12T04:44:33;9.57;;;5.03;;
65238;SDS011;51827;51.186;6.926;2022-09-12T04:45:36;11.97;;;5.77;;
65238;SDS011;51827;51.186;6.926;2022-09-12T04:46:37;9.95;;;5.32;;
65238;SDS011;51827;51.186;6.926;2022-09-12T04:47:39;11.35;;;5.40;;
65238;SDS011;51827;51.186;6.926;2022-09-12T04:48:40;15.97;;;5.37;;
65238;SDS011;51827;51.186;6.926;2022-09-12T04:49:40;9.10;;;5.03;;
65238;SDS011;51827;51.186;6.926;2022-09-12T04:50:40;9.13;;;5.07;;
65238;SDS011;51827;51.186;6.926;2022-09-12T04:51:43;9.73;;;4.75;;
65238;SDS011;51827;51.186;6.926;2022-09-12T04:52:50;9.30;;;4.80;;
65238;SDS011;51827;51.186;6.926;2022-09-12T04:53:52;7.60;;;4.72;;
65238;SDS011;51827;51.186;6.926;2022-09-12T04:54:57;10.23;;;4.75;;
65238;SDS011;51827;51.186;6.926;2022-09-12T04:56:04;7.73;;;4.60;;
65238;SDS011;51827;51.186;6.926;2022-09-12T04:57:06;8.13;;;4.45;;
65238;SDS011;51827;51.186;6.926;2022-09-12T04:58:06;9.00;;;4.57;;
65238;SDS011;51827;51.186;6.926;2022-09-12T04:59:10;8.40;;;4.47;;
65238;SDS011;51827;51.186;6.926;2022-09-12T05:00:11;8.32;;;4.97;;
65238;SDS011;51827;51.186;6.926;2022-09-12T05:01:20;9.65;;;4.70;;
65238;SDS011;51827;51.186;6.926;2022-09-12T05:02:21;11.57;;;4.95;;
65238;SDS011;51827;51.186;6.926;2022-09-12T05:03:21;7.70;;;4.70;;
65238;SDS011;51827;51.186;6.926;2022-09-12T05:04:22;10.20;;;5.03;;
65238;SDS011;51827;51.186;6.926;2022-09-12T05:05:25;7.97;;;4.90;;
65238;SDS011;51827;51.186;6.926;2022-09-12T05:06:27;11.88;;;5.18;;
65238;SDS011;51827;51.186;6.926;2022-09-12T05:07:28;9.60;;;4.88;;
65238;SDS011;51827;51.186;6.926;2022-09-12T05:08:28;9.10;;;4.83;;
65238;SDS011;51827;51.186;6.926;2022-09-12T05:09:32;9.60;;;5.20;;
65238;SDS011;51827;51.186;6.926;2022-09-12T05:10:32;9.02;;;4.45;;
65238;SDS011;51827;51.186;6.926;2022-09-12T05:11:34;10.55;;;4.35;;
65238;SDS011;51827;51.186;6.926;2022-09-12T05:12:41;6.65;;;4.20;;
65238;SDS011;51827;51.186;6.926;2022-09-12T05:13:41;6.93;;;4.70;;
65238;SDS011;51827;51.186;6.926;2022-09-12T05:14:41;6.40;;;4.40;;
65238;SDS011;51827;51.186;6.926;2022-09-12T05:15:42;6.50;;;4.30;;
65238;SDS011;51827;51.186;6.926;2022-09-12T05:16:42;6.27;;;4.10;;
65238;SDS011;51827;51.186;6.926;2022-09-12T05:17:42;6.13;;;4.27;;
65238;SDS011;51827;51.186;6.926;2022-09-12T05:18:50;9.70;;;4.75;;
65238;SDS011;51827;51.186;6.926;2022-09-12T05:19:53;8.57;;;4.80;;
65238;SDS011;51827;51.186;6.926;2022-09-12T05:20:57;7.82;;;4.30;;
65238;SDS011;51827;51.186;6.926;2022-09-12T05:21:58;7.35;;;4.35;;
65238;SDS011;51827;51.186;6.926;2022-09-12T05:22:59;8.30;;;4.50;;
65238;SDS011;51827;51.186;6.926;2022-09-12T05:23:59;11.47;;;4.30;;
65238;SDS011;51827;51.186;6.926;2022-09-12T05:24:59;9.53;;;4.90;;
65238;SDS011;51827;51.186;6.926;2022-09-12T05:26:00;10.07;;;5.00;;
65238;SDS011;51827;51.186;6.926;2022-09-12T05:27:03;7.93;;;4.60;;
65238;SDS011;51827;51.186;6.926;2022-09-12T05:28:04;9.57;;;4.50;;
65238;SDS011;51827;51.186;6.926;2022-09-12T05:29:04;7.90;;;4.73;;
65238;SDS011;51827;51.186;6.926;2022-09-12T05:30:04;7.22;;;4.28;;
65238;SDS011;51827;51.186;6.926;2022-09-12T05:31:12;10.05;;;4.85;;
65238;SDS011;51827;51.186;6.926;2022-09-12T05:32:14;9.82;;;4.70;;
65238;SDS011;51827;51.186;6.926;2022-09-12T05:33:14;10.13;;;4.30;;
65238;SDS011;51827;51.186;6.926;2022-09-12T05:34:17;8.90;;;4.60;;
65238;SDS011;51827;51.186;6.926;2022-09-12T05:35:20;9.80;;;4.43;;
65238;SDS011;51827;51.186;6.926;2022-09-12T05:36:24;6.75;;;4.40;;
65238;SDS011;51827;51.186;6.926;2022-09-12T05:37:26;10.38;;;4.25;;
65238;SDS011;51827;51.186;6.926;2022-09-12T05:38:26;7.27;;;4.70;;
65238;SDS011;51827;51.186;6.926;2022-09-12T05:39:30;9.27;;;4.63;;
65238;SDS011;51827;51.186;6.926;2022-09-12T05:40:33;7.75;;;4.35;;
65238;SDS011;51827;51.186;6.926;2022-09-12T05:41:36;7.50;;;4.40;;
65238;SDS011;51827;51.186;6.926;2022-09-12T05:42:37;8.40;;;4.47;;
65238;SDS011;51827;51.186;6.926;2022-09-12T05:43:37;7.27;;;4.60;;
65238;SDS011;51827;51.186;6.926;2022-09-12T05:45:38;8.83;;;4.33;;
65238;SDS011;51827;51.186;6.926;2022-09-12T05:46:44;7.70;;;4.40;;
65238;SDS011;51827;51.186;6.926;2022-09-12T05:47:48;6.85;;;4.35;;
65238;SDS011;51827;51.186;6.926;2022-09-12T05:48:48;6.47;;;4.13;;
65238;SDS011;51827;51.186;6.926;2022-09-12T05:49:49;8.65;;;4.30;;
65238;SDS011;51827;51.186;6.926;2022-09-12T05:50:49;8.20;;;4.20;;
65238;SDS011;51827;51.186;6.926;2022-09-12T05:51:49;6.63;;;4.00;;
65238;SDS011;51827;51.186;6.926;2022-09-12T05:52:49;7.03;;;4.70;;
65238;SDS011;51827;51.186;6.926;2022-09-12T05:53:51;7.63;;;4.33;;
65238;SDS011;51827;51.186;6.926;2022-09-12T05:54:53;7.78;;;4.32;;
65238;SDS011;51827;51.186;6.926;2022-09-12T05:57:10;7.35;;;4.30;;
65238;SDS011;51827;51.186;6.926;2022-09-12T05:58:31;9.00;;;4.40;;
65238;SDS011;51827;51.186;6.926;2022-09-12T05:59:31;10.30;;;4.68;;
65238;SDS011;51827;51.186;6.926;2022-09-12T06:00:31;6.47;;;3.60;;
65238;SDS011;51827;51.186;6.926;2022-09-12T06:01:32;9.53;;;4.00;;
65238;SDS011;51827;51.186;6.926;2022-09-12T06:02:33;11.15;;;4.50;;
65238;SDS011;51827;51.186;6.926;2022-09-12T06:03:34;6.80;;;4.07;;
65238;SDS011;51827;51.186;6.926;2022-09-12T06:04:39;8.98;;;4.65;;
65238;SDS011;51827;51.186;6.926;2022-09-12T06:05:39;6.63;;;4.13;;
65238;SDS011;51827;51.186;6.926;2022-09-12T06:06:44;7.00;;;4.25;;
65238;SDS011;51827;51.186;6.926;2022-09-12T06:07:52;11.38;;;4.47;;
65238;SDS011;51827;51.186;6.926;2022-09-12T06:08:54;7.57;;;4.40;;
65238;SDS011;51827;51.186;6.926;2022-09-12T06:09:56;7.00;;;4.03;;
65238;SDS011;51827;51.186;6.926;2022-09-12T06:10:57;9.32;;;4.50;;
65238;SDS011;51827;51.186;6.926;2022-09-12T06:11:58;8.57;;;4.60;;
65238;SDS011;51827;51.186;6.926;2022-09-12T06:13:05;10.00;;;4.50;;
65238;SDS011;51827;51.186;6.926;2022-09-12T06:14:05;6.57;;;4.10;;
65238;SDS011;51827;51.186;6.926;2022-09-12T06:15:06;5.75;;;3.95;;
65238;SDS011;51827;51.186;6.926;2022-09-12T06:17:08;7.32;;;4.60;;
65238;SDS011;51827;51.186;6.926;2022-09-12T06:18:12;8.93;;;4.13;;
65238;SDS011;51827;51.186;6.926;2022-09-12T06:19:16;7.30;;;4.65;;
65238;SDS011;51827;51.186;6.926;2022-09-12T06:20:18;7.63;;;4.40;;
65238;SDS011;51827;51.186;6.926;2022-09-12T06:21:18;7.43;;;4.83;;
65238;SDS011;51827;51.186;6.926;2022-09-12T06:22:20;7.43;;;4.32;;
65238;SDS011;51827;51.186;6.926;2022-09-12T06:23:20;7.73;;;4.30;;
65238;SDS011;51827;51.186;6.926;2022-09-12T06:24:20;7.00;;;4.30;;
65238;SDS011;51827;51.186;6.926;2022-09-12T06:25:21;8.93;;;4.55;;
65238;SDS011;51827;51.186;6.926;2022-09-12T06:26:21;6.53;;;4.13;;
65238;SDS011;51827;51.186;6.926;2022-09-12T06:27:22;6.72;;;4.25;;
65238;SDS011;51827;51.186;6.926;2022-09-12T06:28:22;9.07;;;4.00;;
65238;SDS011;51827;51.186;6.926;2022-09-12T06:29:22;8.10;;;4.53;;
65238;SDS011;51827;51.186;6.926;2022-09-12T06:30:23;6.73;;;4.20;;
65238;SDS011;51827;51.186;6.926;2022-09-12T06:31:26;8.65;;;4.50;;
65238;SDS011;51827;51.186;6.926;2022-09-12T06:32:34;6.32;;;4.32;;
65238;SDS011;51827;51.186;6.926;2022-09-12T06:33:35;6.70;;;4.23;;
65238;SDS011;51827;51.186;6.926;2022-09-12T06:34:36;8.32;;;4.40;;
65238;SDS011;51827;51.186;6.926;2022-09-12T06:35:39;7.37;;;4.57;;
65238;SDS011;51827;51.186;6.926;2022-09-12T06:36:44;6.32;;;3.88;;
65238;SDS011;51827;51.186;6.926;2022-09-12T06:37:45;6.70;;;4.13;;
65238;SDS011;51827;51.186;6.926;2022-09-12T06:38:46;6.40;;;3.90;;
65238;SDS011;51827;51.186;6.926;2022-09-12T06:39:46;8.37;;;4.20;;
65238;SDS011;51827;51.186;6.926;2022-09-12T06:40:46;6.20;;;4.37;;
65238;SDS011;51827;51.186;6.926;2022-09-12T06:41:47;8.90;;;4.50;;
65238;SDS011;51827;51.186;6.926;2022-09-12T06:42:51;6.22;;;4.07;;
65238;SDS011;51827;51.186;6.926;2022-09-12T06:43:52;9.93;;;4.20;;
65238;SDS011;51827;51.186;6.926;2022-09-12T06:44:52;7.32;;;4.20;;
65238;SDS011;51827;51.186;6.926;2022-09-12T06:45:55;6.47;;;4.20;;
65238;SDS011;51827;51.186;6.926;2022-09-12T06:46:59;6.40;;;4.35;;
65238;SDS011;51827;51.186;6.926;2022-09-12T06:47:59;6.28;;;4.05;;
65238;SDS011;51827;51.186;6.926;2022-09-12T06:48:59;5.80;;;4.05;;
65238;SDS011;51827;51.186;6.926;2022-09-12T06:50:00;8.40;;;4.43;;
65238;SDS011;51827;51.186;6.926;2022-09-12T06:51:02;9.80;;;4.33;;
65238;SDS011;51827;51.186;6.926;2022-09-12T06:52:13;9.05;;;4.38;;
65238;SDS011;51827;51.186;6.926;2022-09-12T06:53:13;6.43;;;4.28;;
65238;SDS011;51827;51.186;6.926;2022-09-12T06:54:14;6.47;;;4.47;;
65238;SDS011;51827;51.186;6.926;2022-09-12T06:55:14;7.70;;;4.30;;
65238;SDS011;51827;51.186;6.926;2022-09-12T06:56:16;7.43;;;4.00;;
65238;SDS011;51827;51.186;6.926;2022-09-12T06:57:18;6.20;;;4.00;;
65238;SDS011;51827;51.186;6.926;2022-09-12T06:58:18;11.40;;;4.07;;
65238;SDS011;51827;51.186;6.926;2022-09-12T06:59:21;8.27;;;4.47;;
65238;SDS011;51827;51.186;6.926;2022-09-12T07:00:24;6.50;;;4.00;;
65238;SDS011;51827;51.186;6.926;2022-09-12T07:01:28;7.57;;;3.95;;
65238;SDS011;51827;51.186;6.926;2022-09-12T07:02:30;7.13;;;4.07;;
65238;SDS011;51827;51.186;6.926;2022-09-12T07:03:30;5.75;;;3.75;;
65238;SDS011;51827;51.186;6.926;2022-09-12T07:04:34;7.68;;;4.05;;
65238;SDS011;51827;51.186;6.926;2022-09-12T07:05:38;5.82;;;3.80;;
65238;SDS011;51827;51.186;6.926;2022-09-12T07:06:39;7.70;;;4.50;;
65238;SDS011;51827;51.186;6.926;2022-09-12T07:07:40;5.88;;;3.83;;
65238;SDS011;51827;51.186;6.926;2022-09-12T07:08:41;6.13;;;4.17;;
65238;SDS011;51827;51.186;6.926;2022-09-12T07:09:41;7.32;;;4.10;;
65238;SDS011;51827;51.186;6.926;2022-09-12T07:10:48;8.57;;;3.90;;
65238;SDS011;51827;51.186;6.926;2022-09-12T07:11:49;10.70;;;3.83;;
65238;SDS011;51827;51.186;6.926;2022-09-12T07:12:49;7.60;;;3.97;;
65238;SDS011;51827;51.186;6.926;2022-09-12T07:13:50;6.57;;;3.70;;
65238;SDS011;51827;51.186;6.926;2022-09-12T07:14:53;6.75;;;3.78;;